createdAt,value
2022-08-24T00:02:06.833Z,16.75
2022-08-24T00:04:36.694Z,12.15
2022-08-24T00:07:07.140Z,16.15
2022-08-24T00:09:55.594Z,17.77
2022-08-24T00:12:24.595Z,18.05
2022-08-24T00:14:55.037Z,12.82
2022-08-24T00:17:24.282Z,13.70
2022-08-24T00:19:55.063Z,14.90
2022-08-24T00:22:24.006Z,17.65
2022-08-24T00:24:52.428Z,19.58
2022-08-24T00:27:21.469Z,14.20
2022-08-24T00:29:51.003Z,16.80
2022-08-24T00:32:19.435Z,19.98
2022-08-24T00:34:59.059Z,17.67
2022-08-24T00:37:30.103Z,15.20
2022-08-24T00:39:59.697Z,11.70
2022-08-24T00:42:29.325Z,17.15
2022-08-24T00:44:58.473Z,16.27
2022-08-24T00:47:33.342Z,13.18
2022-08-24T00:50:07.312Z,16.60
2022-08-24T00:52:50.869Z,12.43
2022-08-24T00:55:23.730Z,15.60
2022-08-24T00:57:56.516Z,10.82
2022-08-24T01:00:31.774Z,11.70
2022-08-24T01:03:04.707Z,19.75
2022-08-24T01:05:34.213Z,14.32
2022-08-24T01:08:07.550Z,16.45
2022-08-24T01:10:41.262Z,20.27
2022-08-24T01:13:11.719Z,15.77
2022-08-24T01:15:42.697Z,13.13
2022-08-24T01:18:34.132Z,12.75
2022-08-24T01:21:09.118Z,13.50
2022-08-24T01:23:42.225Z,18.10
2022-08-24T01:26:16.500Z,19.25
2022-08-24T01:28:48.111Z,11.32
2022-08-24T01:31:22.374Z,19.10
2022-08-24T01:33:52.596Z,17.90
2022-08-24T01:36:28.173Z,17.27
2022-08-24T01:39:02.769Z,14.23
2022-08-24T01:41:31.435Z,10.98
2022-08-24T01:44:00.714Z,15.15
2022-08-24T01:46:30.536Z,12.32
2022-08-24T01:49:00.171Z,17.45
2022-08-24T01:51:32.110Z,16.25
2022-08-24T01:54:03.784Z,13.00
2022-08-24T01:56:34.334Z,13.45
2022-08-24T01:59:04.202Z,17.83
2022-08-24T02:01:36.895Z,12.52
2022-08-24T02:04:08.758Z,13.82
2022-08-24T02:06:39.274Z,10.32
2022-08-24T02:09:12.758Z,12.18
2022-08-24T02:11:43.118Z,16.25
2022-08-24T02:14:14.740Z,15.45
2022-08-24T02:16:44.116Z,16.15
2022-08-24T02:19:12.890Z,12.75
2022-08-24T02:21:41.999Z,13.70
2022-08-24T02:24:12.070Z,16.83
2022-08-24T02:26:41.087Z,17.83
2022-08-24T02:29:09.576Z,20.48
2022-08-24T02:31:39.385Z,17.30
2022-08-24T02:34:08.306Z,12.65
2022-08-24T02:36:37.231Z,11.23
2022-08-24T02:39:06.709Z,14.30
2022-08-24T02:41:37.870Z,11.05
2022-08-24T02:44:07.218Z,11.65
2022-08-24T02:46:37.825Z,12.18
2022-08-24T02:49:11.712Z,18.50
2022-08-24T02:51:45.541Z,11.65
2022-08-24T02:54:19.768Z,13.18
2022-08-24T02:56:53.091Z,15.70
2022-08-24T02:59:24.900Z,14.63
2022-08-24T03:01:54.629Z,12.75
2022-08-24T03:04:25.450Z,13.57
2022-08-24T03:06:54.742Z,15.48
2022-08-24T03:09:24.783Z,13.82
2022-08-24T03:12:01.292Z,15.40
2022-08-24T03:14:30.021Z,17.08
2022-08-24T03:16:59.371Z,12.48
2022-08-24T03:19:28.484Z,15.02
2022-08-24T03:21:57.768Z,20.48
2022-08-24T03:24:28.410Z,16.13
2022-08-24T03:26:59.509Z,18.67
2022-08-24T03:29:32.951Z,15.00
2022-08-24T03:32:03.851Z,14.38
2022-08-24T03:34:32.688Z,17.85
2022-08-24T03:37:01.376Z,15.60
2022-08-24T03:39:30.815Z,14.68
2022-08-24T03:41:59.604Z,15.25
2022-08-24T03:44:29.904Z,10.90
2022-08-24T03:46:58.851Z,14.30
2022-08-24T03:49:29.644Z,12.82
2022-08-24T03:51:58.323Z,11.43
2022-08-24T03:54:27.210Z,13.07
2022-08-24T03:56:57.526Z,12.15
2022-08-24T03:59:27.743Z,14.88
2022-08-24T04:02:01.330Z,18.75
2022-08-24T04:04:31.416Z,12.52
2022-08-24T04:07:00.162Z,10.35
2022-08-24T04:09:29.728Z,14.30
2022-08-24T04:11:59.282Z,10.35
2022-08-24T04:14:28.736Z,6.90
2022-08-24T04:17:06.250Z,13.10
2022-08-24T04:19:57.990Z,13.85
2022-08-24T04:22:36.579Z,12.50
2022-08-24T04:25:10.244Z,14.55
2022-08-24T04:27:41.643Z,10.60
2022-08-24T04:30:14.146Z,11.32
2022-08-24T04:33:05.407Z,13.23
2022-08-24T04:35:40.337Z,16.02
2022-08-24T04:38:10.282Z,15.18
2022-08-24T04:40:41.647Z,10.10
2022-08-24T04:43:11.981Z,14.50
2022-08-24T04:45:43.316Z,9.23
2022-08-24T04:48:14.937Z,10.75
2022-08-24T04:50:45.661Z,14.60
2022-08-24T04:53:15.323Z,17.50
2022-08-24T04:55:50.617Z,13.60
2022-08-24T04:58:20.928Z,14.02
2022-08-24T05:00:49.994Z,10.13
2022-08-24T05:03:20.375Z,11.15
2022-08-24T05:05:51.153Z,12.75
2022-08-24T05:08:21.207Z,18.73
2022-08-24T05:10:52.300Z,11.27
2022-08-24T05:13:22.642Z,12.15
2022-08-24T05:15:51.499Z,10.60
2022-08-24T05:18:21.883Z,12.10
2022-08-24T05:20:50.730Z,11.50
2022-08-24T05:23:20.696Z,14.88
2022-08-24T05:25:49.651Z,15.77
2022-08-24T05:28:19.230Z,10.85
2022-08-24T05:30:47.853Z,11.27
2022-08-24T05:33:21.370Z,13.65
2022-08-24T05:35:50.487Z,13.68
2022-08-24T05:38:19.614Z,10.65
2022-08-24T05:40:48.730Z,13.48
2022-08-24T05:43:17.930Z,11.90
2022-08-24T05:45:47.350Z,14.07
2022-08-24T05:48:16.569Z,14.70
2022-08-24T05:51:13.853Z,14.18
2022-08-24T05:53:52.428Z,14.43
2022-08-24T05:56:27.683Z,16.35
2022-08-24T05:59:00.887Z,12.77
2022-08-24T06:01:30.137Z,11.07
2022-08-24T06:03:59.855Z,17.35
2022-08-24T06:06:35.059Z,8.70
2022-08-24T06:09:05.207Z,14.48
2022-08-24T06:11:36.608Z,15.43
2022-08-24T06:14:11.981Z,12.93
2022-08-24T06:16:52.784Z,12.98
2022-08-24T06:19:23.210Z,13.65
2022-08-24T06:21:55.453Z,13.40
2022-08-24T06:24:46.853Z,10.20
2022-08-24T06:27:22.734Z,12.95
2022-08-24T06:29:57.288Z,15.38
2022-08-24T06:32:46.858Z,14.95
2022-08-24T06:35:25.899Z,13.73
2022-08-24T06:37:56.140Z,11.35
2022-08-24T06:40:27.225Z,11.38
2022-08-24T06:42:57.648Z,8.95
2022-08-24T06:45:45.722Z,12.35
2022-08-24T06:48:18.584Z,14.60
2022-08-24T06:50:50.044Z,16.63
2022-08-24T06:53:20.422Z,14.32
2022-08-24T06:55:52.583Z,19.63
2022-08-24T06:58:24.579Z,13.77
2022-08-24T07:00:55.410Z,14.43
2022-08-24T07:06:25.128Z,15.75
2022-08-24T07:08:58.205Z,10.50
2022-08-24T07:12:36.099Z,12.63
2022-08-24T07:15:16.603Z,13.93
2022-08-24T07:17:51.468Z,13.30
2022-08-24T07:20:20.308Z,21.13
2022-08-24T07:23:07.367Z,17.88
2022-08-24T07:25:38.094Z,19.33
2022-08-24T07:28:10.147Z,17.73
2022-08-24T07:30:43.100Z,15.63
2022-08-24T07:33:13.230Z,11.38
2022-08-24T07:35:42.887Z,17.83
2022-08-24T07:38:13.886Z,23.98
2022-08-24T07:41:14.333Z,21.92
2022-08-24T07:43:38.129Z,14.10
2022-08-24T07:46:11.880Z,17.13
2022-08-24T07:48:40.713Z,13.20
2022-08-24T07:51:11.288Z,11.02
2022-08-24T07:53:53.158Z,18.75
2022-08-24T07:56:29.747Z,13.23
2022-08-24T07:59:00.763Z,11.25
2022-08-24T08:01:30.302Z,11.93
2022-08-24T08:03:59.362Z,16.67
2022-08-24T08:06:27.860Z,13.43
2022-08-24T08:09:02.873Z,17.52
2022-08-24T08:11:35.286Z,15.30
2022-08-24T08:14:04.239Z,18.73
2022-08-24T08:16:33.013Z,14.60
2022-08-24T08:19:17.077Z,18.98
2022-08-24T08:22:05.632Z,18.17
2022-08-24T08:24:39.819Z,12.57
2022-08-24T08:27:11.696Z,10.57
2022-08-24T08:29:46.292Z,19.73
2022-08-24T08:32:19.951Z,9.70
2022-08-24T08:34:50.545Z,17.02
2022-08-24T08:37:20.390Z,14.02
2022-08-24T08:39:50.430Z,11.40
2022-08-24T08:42:49.513Z,15.38
2022-08-24T08:45:36.295Z,15.63
2022-08-24T08:49:01.234Z,16.20
2022-08-24T08:51:51.820Z,15.60
2022-08-24T08:54:31.236Z,19.17
2022-08-24T08:57:17.411Z,25.63
2022-08-24T09:00:03.089Z,20.05
2022-08-24T09:02:51.463Z,23.55
2022-08-24T09:08:43.830Z,24.95
2022-08-24T09:11:34.474Z,33.05
2022-08-24T09:14:31.580Z,29.98
2022-08-24T09:17:16.257Z,20.27
2022-08-24T09:20:00.943Z,28.52
2022-08-24T09:22:43.749Z,24.98
2022-08-24T09:25:37.161Z,30.10
2022-08-24T09:28:30.294Z,24.17
2022-08-24T09:31:22.174Z,25.30
2022-08-24T09:34:07.673Z,18.85
2022-08-24T09:36:54.191Z,26.48
2022-08-24T09:39:39.543Z,20.00
2022-08-24T09:42:32.345Z,27.77
2022-08-24T09:45:33.937Z,27.38
2022-08-24T09:54:04.588Z,29.02
2022-08-24T09:57:11.543Z,15.73
2022-08-24T09:59:59.579Z,39.17
2022-08-24T10:02:58.880Z,35.92
2022-08-24T10:05:54.864Z,27.73
2022-08-24T10:08:41.490Z,35.70
2022-08-24T10:11:21.209Z,41.70
2022-08-24T10:14:01.827Z,29.25
2022-08-24T10:16:42.289Z,44.20
2022-08-24T10:19:33.239Z,38.15
2022-08-24T10:22:17.532Z,39.67
2022-08-24T10:25:12.203Z,53.95
2022-08-24T10:27:51.541Z,34.72
2022-08-24T10:30:54.508Z,49.78
2022-08-24T10:33:26.884Z,42.67
2022-08-24T10:36:22.163Z,34.15
2022-08-24T10:39:09.611Z,33.00
2022-08-24T10:42:34.861Z,44.72
2022-08-24T10:45:18.371Z,32.40
2022-08-24T10:48:07.254Z,42.45
2022-08-24T10:50:53.027Z,37.40
2022-08-24T10:53:26.165Z,40.17
2022-08-24T10:56:12.870Z,39.65
2022-08-24T10:58:55.683Z,50.33
2022-08-24T11:01:32.002Z,40.65
2022-08-24T11:04:05.433Z,38.60
2022-08-24T11:06:37.757Z,36.05
2022-08-24T11:09:10.199Z,44.70
2022-08-24T11:11:40.885Z,44.38
2022-08-24T11:14:24.600Z,41.08
2022-08-24T11:16:57.629Z,27.90
2022-08-24T11:19:35.490Z,39.00
2022-08-24T11:22:06.643Z,39.80
2022-08-24T11:24:44.436Z,40.10
2022-08-24T11:27:34.420Z,41.53
2022-08-24T11:30:11.574Z,35.90
2022-08-24T11:32:45.316Z,47.67
2022-08-24T11:35:28.022Z,40.40
2022-08-24T11:37:59.443Z,36.97
2022-08-24T11:40:32.217Z,34.03
2022-08-24T11:43:26.565Z,47.55
2022-08-24T11:46:08.751Z,46.80
2022-08-24T11:48:49.921Z,52.13
2022-08-24T11:51:32.937Z,45.38
2022-08-24T11:54:06.997Z,38.30
2022-08-24T11:56:43.608Z,46.53
2022-08-24T11:59:23.159Z,55.78
2022-08-24T12:01:58.341Z,40.72
2022-08-24T12:04:47.713Z,49.80
2022-08-24T12:07:25.887Z,39.42
2022-08-24T12:10:12.044Z,49.60
2022-08-24T12:12:48.079Z,42.65
2022-08-24T12:15:21.507Z,42.33
2022-08-24T12:17:58.408Z,56.20
2022-08-24T12:20:34.601Z,50.00
2022-08-24T12:23:18.987Z,42.55
2022-08-24T12:26:04.708Z,41.42
2022-08-24T12:28:40.037Z,50.17
2022-08-24T12:31:17.439Z,48.08
2022-08-24T12:33:52.669Z,37.67
2022-08-24T12:36:29.137Z,47.75
2022-08-24T12:39:10.458Z,38.03
2022-08-24T12:41:49.523Z,36.50
2022-08-24T12:44:20.370Z,49.75
2022-08-24T12:46:54.511Z,41.83
2022-08-24T12:49:31.059Z,50.00
2022-08-24T12:52:15.608Z,41.92
2022-08-24T12:55:01.382Z,42.40
2022-08-24T12:57:53.866Z,45.00
2022-08-24T13:00:28.388Z,43.28
2022-08-24T13:03:02.033Z,39.40
2022-08-24T13:05:43.559Z,43.28
2022-08-24T13:08:16.816Z,45.17
2022-08-24T13:10:55.873Z,44.80
2022-08-24T13:13:46.982Z,37.33
2022-08-24T13:16:47.665Z,39.75
2022-08-24T13:19:32.409Z,36.78
2022-08-24T13:22:41.529Z,44.33
2022-08-24T13:25:45.302Z,42.20
2022-08-24T13:28:32.461Z,41.88
2022-08-24T13:31:15.568Z,47.03
2022-08-24T13:33:48.239Z,45.28
2022-08-24T13:36:49.168Z,41.83
2022-08-24T13:39:52.954Z,43.83
2022-08-24T13:42:45.909Z,49.15
2022-08-24T13:45:26.990Z,48.10
2022-08-24T13:48:04.291Z,45.50
2022-08-24T13:50:39.050Z,40.38
2022-08-24T13:53:35.842Z,46.65
2022-08-24T13:56:33.169Z,44.30
2022-08-24T13:59:12.342Z,47.95
2022-08-24T14:02:01.203Z,51.22
2022-08-24T14:04:43.905Z,52.13
2022-08-24T14:07:19.955Z,61.28
2022-08-24T14:10:03.107Z,40.17
2022-08-24T14:12:55.495Z,54.22
2022-08-24T14:15:46.775Z,46.28
2022-08-24T14:18:24.763Z,39.88
2022-08-24T14:21:08.871Z,46.45
2022-08-24T14:23:52.612Z,48.10
2022-08-24T14:27:02.207Z,53.30
2022-08-24T14:29:38.358Z,47.08
2022-08-24T14:32:41.041Z,60.25
2022-08-24T14:35:24.114Z,49.22
2022-08-24T14:38:03.651Z,40.50
2022-08-24T14:40:37.545Z,48.13
2022-08-24T14:43:30.636Z,41.35
2022-08-24T14:46:09.180Z,56.17
2022-08-24T14:48:49.543Z,37.30
2022-08-24T14:51:39.300Z,38.08
2022-08-24T14:54:18.684Z,55.47
2022-08-24T14:57:03.921Z,45.40
2022-08-24T14:59:47.298Z,36.90
2022-08-24T15:02:50.487Z,41.85
2022-08-24T15:05:26.058Z,36.78
2022-08-24T15:07:58.955Z,40.10
2022-08-24T15:10:37.054Z,31.65
2022-08-24T15:13:11.607Z,41.38
2022-08-24T15:15:51.118Z,52.55
2022-08-24T15:18:34.832Z,44.25
2022-08-24T15:21:14.036Z,35.33
2022-08-24T15:23:53.624Z,48.95
2022-08-24T15:26:34.918Z,49.25
2022-08-24T15:29:13.390Z,35.55
2022-08-24T15:31:43.198Z,33.63
2022-08-24T15:34:12.416Z,40.25
2022-08-24T15:36:42.328Z,33.83
2022-08-24T15:39:26.217Z,27.10
2022-08-24T15:41:57.442Z,23.08
2022-08-24T15:44:29.818Z,23.75
2022-08-24T15:47:02.380Z,24.33
2022-08-24T15:49:38.160Z,27.75
2022-08-24T15:52:10.708Z,31.15
2022-08-24T15:54:44.628Z,27.45
2022-08-24T15:57:29.185Z,24.48
2022-08-24T16:00:10.648Z,22.27
2022-08-24T16:05:23.827Z,17.60
2022-08-24T16:08:08.270Z,19.75
2022-08-24T16:10:41.362Z,22.05
2022-08-24T16:13:15.166Z,23.63
2022-08-24T16:15:49.015Z,19.67
2022-08-24T16:18:18.923Z,25.92
2022-08-24T16:20:49.121Z,27.20
2022-08-24T16:23:28.825Z,28.98
2022-08-24T16:26:24.243Z,25.48
2022-08-24T16:28:56.594Z,27.05
2022-08-24T16:34:23.033Z,29.45
2022-08-24T16:36:51.565Z,28.58
2022-08-24T16:39:21.633Z,27.45
2022-08-24T16:41:51.480Z,28.63
2022-08-24T16:44:20.081Z,21.92
2022-08-24T16:46:54.549Z,23.92
2022-08-24T16:49:23.037Z,26.42
2022-08-24T16:51:52.031Z,28.63
2022-08-24T16:54:21.841Z,26.35
2022-08-24T16:56:50.815Z,22.70
2022-08-24T16:59:26.625Z,26.30
2022-08-24T17:01:55.947Z,19.88
2022-08-24T17:04:24.801Z,27.58
2022-08-24T17:06:53.450Z,17.02
2022-08-24T17:09:23.999Z,21.35
2022-08-24T17:11:52.819Z,24.57
2022-08-24T17:14:21.379Z,16.92
2022-08-24T17:16:50.369Z,21.90
2022-08-24T17:19:20.846Z,19.65
2022-08-24T17:21:50.010Z,22.30
2022-08-24T17:24:22.030Z,23.65
2022-08-24T17:29:22.491Z,16.50
2022-08-24T17:31:52.406Z,18.20
2022-08-24T17:34:22.594Z,25.92
2022-08-24T17:36:54.269Z,22.48
2022-08-24T17:39:24.510Z,27.27
2022-08-24T17:41:55.432Z,22.48
2022-08-24T17:44:26.109Z,25.27
2022-08-24T17:46:57.793Z,20.35
2022-08-24T17:49:27.130Z,20.83
2022-08-24T17:51:56.997Z,13.52
2022-08-24T17:54:28.731Z,17.67
2022-08-24T17:56:58.917Z,23.45
2022-08-24T17:59:33.000Z,18.20
2022-08-24T18:02:05.298Z,17.02
2022-08-24T18:04:35.979Z,15.07
2022-08-24T18:07:11.723Z,17.87
2022-08-24T18:09:46.322Z,21.08
2022-08-24T18:12:19.202Z,16.05
2022-08-24T18:14:48.028Z,17.30
2022-08-24T18:17:22.594Z,15.00
2022-08-24T18:19:55.284Z,17.65
2022-08-24T18:22:23.736Z,16.75
2022-08-24T18:24:52.396Z,14.98
2022-08-24T18:27:29.415Z,20.90
2022-08-24T18:30:01.608Z,13.90
2022-08-24T18:32:37.757Z,23.40
2022-08-24T18:35:09.726Z,16.77
2022-08-24T18:37:39.985Z,17.83
2022-08-24T18:40:10.471Z,15.18
2022-08-24T18:42:48.351Z,17.92
2022-08-24T18:45:17.316Z,13.35
2022-08-24T18:47:53.236Z,16.27
2022-08-24T18:53:30.315Z,11.20
2022-08-24T18:56:21.535Z,14.95
2022-08-24T18:58:53.399Z,10.02
2022-08-24T19:01:58.002Z,14.95
2022-08-24T19:04:33.296Z,11.27
2022-08-24T19:10:05.852Z,10.90
2022-08-24T19:12:42.471Z,10.43
2022-08-24T19:15:37.813Z,14.23
2022-08-24T19:18:19.413Z,7.47
2022-08-24T19:20:58.563Z,11.20
2022-08-24T19:26:28.220Z,9.50
2022-08-24T19:29:05.741Z,5.68
2022-08-24T19:31:45.147Z,10.80
2022-08-24T19:34:14.400Z,15.18
2022-08-24T19:36:47.385Z,12.23
2022-08-24T19:39:16.486Z,7.85
2022-08-24T19:42:10.862Z,13.02
2022-08-24T19:45:04.501Z,10.90
2022-08-24T19:47:38.552Z,11.50
2022-08-24T19:50:10.218Z,9.73
2022-08-24T19:52:43.955Z,14.65
2022-08-24T19:55:14.715Z,9.70
2022-08-24T19:57:49.163Z,11.15
2022-08-24T20:00:28.964Z,6.97
2022-08-24T20:03:00.920Z,11.02
2022-08-24T20:05:30.339Z,10.55
2022-08-24T20:08:00.121Z,8.73
2022-08-24T20:10:29.090Z,7.93
2022-08-24T20:12:57.661Z,13.90
2022-08-24T20:15:26.712Z,8.73
2022-08-24T20:17:57.927Z,8.70
2022-08-24T20:20:29.499Z,14.88
2022-08-24T20:23:03.044Z,10.13
2022-08-24T20:25:32.089Z,8.18
2022-08-24T20:28:27.668Z,13.90
2022-08-24T20:33:24.422Z,11.73
2022-08-24T20:35:55.087Z,11.90
2022-08-24T20:38:24.906Z,9.50
2022-08-24T20:40:54.290Z,8.68
2022-08-24T20:43:22.958Z,6.60
2022-08-24T20:45:53.301Z,13.98
2022-08-24T20:48:28.236Z,11.95
2022-08-24T20:50:58.705Z,9.68
2022-08-24T20:53:28.078Z,13.65
2022-08-24T20:55:58.489Z,12.77
2022-08-24T20:58:27.417Z,7.85
2022-08-24T21:00:56.142Z,8.65
2022-08-24T21:03:24.841Z,7.82
2022-08-24T21:05:53.776Z,11.00
2022-08-24T21:08:25.969Z,10.68
2022-08-24T21:10:55.159Z,11.13
2022-08-24T21:13:24.578Z,13.55
2022-08-24T21:15:53.576Z,11.45
2022-08-24T21:18:22.221Z,10.27
2022-08-24T21:21:03.766Z,10.32
2022-08-24T21:23:35.517Z,11.20
2022-08-24T21:26:07.280Z,9.82
2022-08-24T21:28:37.050Z,8.05
2022-08-24T21:31:06.579Z,12.73
2022-08-24T21:33:52.810Z,7.50
2022-08-24T21:36:23.650Z,11.20
2022-08-24T21:38:54.978Z,13.73
2022-08-24T21:41:24.903Z,10.75
2022-08-24T21:43:53.512Z,18.33
2022-08-24T21:46:25.190Z,8.27
2022-08-24T21:48:53.862Z,12.95
2022-08-24T21:51:22.699Z,10.93
2022-08-24T21:53:51.603Z,13.13
2022-08-24T21:56:30.286Z,8.73
2022-08-24T21:58:59.288Z,9.57
2022-08-24T22:01:29.194Z,10.60
2022-08-24T22:03:58.918Z,16.52
2022-08-24T22:06:31.302Z,8.85
2022-08-24T22:09:01.557Z,7.75
2022-08-24T22:11:32.358Z,10.15
2022-08-24T22:14:01.293Z,9.30
2022-08-24T22:16:29.972Z,8.77
2022-08-24T22:18:58.408Z,14.13
2022-08-24T22:21:30.532Z,10.60
2022-08-24T22:23:59.967Z,10.32
2022-08-24T22:26:30.868Z,8.23
2022-08-24T22:29:05.482Z,9.75
2022-08-24T22:31:37.402Z,8.43
2022-08-24T22:34:09.858Z,7.90
2022-08-24T22:36:38.560Z,12.05
2022-08-24T22:39:09.566Z,9.45
2022-08-24T22:41:39.372Z,11.40
2022-08-24T22:44:21.938Z,10.60
2022-08-24T22:46:52.922Z,10.35
2022-08-24T22:49:22.936Z,16.00
2022-08-24T22:51:52.280Z,8.32
2022-08-24T22:54:23.096Z,15.60
2022-08-24T22:56:53.599Z,9.98
2022-08-24T22:59:25.884Z,8.73
2022-08-24T23:01:56.311Z,9.80
2022-08-24T23:04:27.488Z,13.07
2022-08-24T23:06:56.155Z,7.95
2022-08-24T23:09:24.669Z,13.15
2022-08-24T23:11:54.031Z,11.18
2022-08-24T23:14:25.903Z,8.73
2022-08-24T23:16:55.852Z,12.52
2022-08-24T23:19:43.643Z,12.27
2022-08-24T23:22:14.976Z,8.25
2022-08-24T23:24:45.306Z,8.35
2022-08-24T23:27:16.705Z,13.98
2022-08-24T23:29:47.718Z,12.90
2022-08-24T23:32:18.212Z,8.05
2022-08-24T23:34:48.084Z,8.43
2022-08-24T23:37:17.082Z,10.80
2022-08-24T23:39:46.675Z,6.47
2022-08-24T23:42:15.311Z,11.20
2022-08-24T23:44:43.860Z,7.60
2022-08-24T23:47:14.252Z,9.95
2022-08-24T23:49:42.724Z,9.95
2022-08-24T23:52:26.727Z,8.35
2022-08-24T23:54:59.995Z,11.80
2022-08-24T23:57:47.071Z,8.07
